Airfield :
LOGIN :

Register | Disclaimer

   EN    FR    IT 

 










Legend :    VFR   Marginal VFR   IFR   Intensive IFR   Very Intensive IFR
Visi :
Ceiling :
>= 8 km
>= 3000ft
5 to 8 km
1000 to 3000 ft
1500m to 5 km
500 to 1000 ft
800 to 1500m
200 to 500 ft
< 800m
< 200 ft
Symbols :   Thunderstorms  Fog  Heavy snow  Heavy precipitations  Wind > 20 kt
SIGMETs :     Misc.  Thunderstorms  Icing  Turbulence  Mountain Waves  Volcanic Ashes







- Airport Elevation : 1325 ft
- IATA code : EBU
- Download approach charts


LFMH - St-Etienne Boutheon

CURRENT METAR :
  • 230500Z AUTO 33003KT 300V360 9999 FEW030 05/03 Q1022 NOSIG

EXPIRED METARs :
  • 230430Z AUTO VRB02KT 9999 OVC050 06/03 Q1022 NOSIG
  • 230400Z AUTO VRB01KT 9999 OVC049 06/03 Q1022 NOSIG
  • 230330Z AUTO 02002KT 9999 OVC050 06/03 Q1022 NOSIG
  • 230300Z AUTO 04002KT 9999 OVC050 06/03 Q1022 NOSIG
  • 230230Z AUTO 00000KT 9999 BKN050 06/03 Q1022 NOSIG

TAF TAF LFMH
Valid from the 23 at 03:00 until the 24 at 03:00 UTC


230200Z 2303/2403 VRB02KT 9999 BKN050
BECMG 2305/2308 33008KT CAVOK
ATIS : +33 4 77 36 17 51
No reported NOTAMs for that airfield.



MET'MAP, your aeronautical weather chart ! - Copyright ORBIFLY December 2007 - Disclaimer

ORBIFLY MET'MAP TEAM :

Programming & Development : Alexandra Zaïnal
Concept & Development : Baudouin d'Aumeries
Co-Development & Prog : Marc-Olivier Méhu
Technical & hardware support : Manuel Goepfert

Contact : metmap@orbifly.com




SOURCES & CREDITS :

   NOAA